Meteo Giornale » Osservazioni meteo Stati Uniti (USA) » Hutchinson
ore: 15:52 - Osservazioni Meteo Hutchinson
Lat. 38° 4' N Lon. 97° 51' W Alt. 470 metri s.l.m.
39 °C
Sereno
Temp. 24 Ore
23 °C
41 °C
Sud/Sud-Est
29.6 Km/h
Dew point 13 °C
Umidità 21 %
Visibilità 10 Km
Il sole sorge alle ore 07:00
Il sole tramonta alle ore 20:02
| Data e Ora | Cielo e Fenomeni | T °C | DP °C | Um. % | Pres. hPa | Vis. km | Vento km/h | |
|---|---|---|---|---|---|---|---|---|
| Oggi h: 15:52 | Sereno | 39 | 13 | 21 | 1013 | 10 | S/SE 29.6 | |
| Oggi h: 14:52 | Sereno | 40 | 15 | 23 | 1014 | 10 | S 25.9 | |
| Oggi h: 13:52 | Sereno | 39 | 16 | 26 | 1014 | 10 | S 29.6 | |
| Oggi h: 12:52 | Sereno | 38 | 16 | 27 | 1014 | 10 | S 33.3 | |
| Oggi h: 11:52 | Sereno | 36 | 16 | 30 | 1015 | 10 | S 20.3 | |
| Oggi h: 10:52 | Sereno | 33 | 15 | 33 | 1015 | 10 | S 22.2 | |
| Oggi h: 09:52 | Sereno | 30 | 14 | 37 | 1015 | 10 | SE 16.7 | |
| Oggi h: 08:52 | Sereno | 28 | 16 | 48 | 1016 | 10 | SE 13 | |
| Oggi h: 07:52 | Sereno | 23 | 15 | 60 | 1015 | 13 | N 5.5 | |
| Oggi h: 06:52 | Molto Nuvoloso | 26 | 14 | 47 | 1015 | 10 | O/NO 9.3 | |
| Oggi h: 05:52 | Molto Nuvoloso | 26 | 14 | 47 | 1014 | 10 | S 9.3 | |
| Oggi h: 04:52 | Coperto | 27 | 14 | 44 | 1014 | 10 | S/SO 13 | |
| Oggi h: 03:52 | Sereno | 28 | 14 | 42 | 1013 | 10 | S/SO 18.5 | |
| Oggi h: 02:52 | Sereno | 28 | 14 | 42 | 1012 | 10 | S 18.5 | |
| Oggi h: 01:52 | Sereno | 29 | 14 | 39 | 1012 | 10 | S 20.3 | |
| Oggi h: 00:52 | Sereno | 29 | 15 | 42 | 1012 | 10 | S 14.8 | |
| Ieri h: 23:52 | Sereno | 30 | 14 | 37 | 1011 | 10 | S/SE 18.5 | |
| Ieri h: 22:52 | Sereno | 32 | 14 | 33 | 1011 | 10 | S/SE 20.3 | |
| Ieri h: 21:52 | Sereno | 32 | 15 | 35 | 1011 | 10 | S/SE 20.3 | |
| Ieri h: 20:52 | Sereno | 34 | 16 | 34 | 1010 | 10 | S/SE 18.5 | |
| Ieri h: 19:52 | Sereno | 37 | 15 | 27 | 1009 | 10 | S 25.9 | |
| Ieri h: 18:52 | Sereno | 39 | 14 | 22 | 1009 | 10 | S 27.8 | |
| Ieri h: 17:52 | Sereno | 41 | 14 | 20 | 1009 | 10 | N 0 | |
| Ieri h: 16:52 | Sereno | 41 | 14 | 20 | 1009 | 10 | S 33.3 | |



